sensor_id;sensor_type;location;lat;lon;timestamp;P1;durP1;ratioP1;P2;durP2;ratioP2
41667;SDS011;27356;50.920;5.350;2023-01-04T00:01:10;7.90;;;2.80;;
41667;SDS011;27356;50.920;5.350;2023-01-04T00:03:38;5.60;;;1.30;;
41667;SDS011;27356;50.920;5.350;2023-01-04T00:06:04;6.13;;;1.45;;
41667;SDS011;27356;50.920;5.350;2023-01-04T00:08:31;10.65;;;1.42;;
41667;SDS011;27356;50.920;5.350;2023-01-04T00:11:01;6.63;;;1.48;;
41667;SDS011;27356;50.920;5.350;2023-01-04T00:13:29;7.63;;;1.50;;
41667;SDS011;27356;50.920;5.350;2023-01-04T00:15:55;3.92;;;1.20;;
41667;SDS011;27356;50.920;5.350;2023-01-04T00:18:22;5.05;;;1.40;;
41667;SDS011;27356;50.920;5.350;2023-01-04T00:20:47;6.10;;;1.42;;
41667;SDS011;27356;50.920;5.350;2023-01-04T00:23:13;4.63;;;1.65;;
41667;SDS011;27356;50.920;5.350;2023-01-04T00:25:39;6.90;;;1.58;;
41667;SDS011;27356;50.920;5.350;2023-01-04T00:28:05;5.57;;;1.48;;
41667;SDS011;27356;50.920;5.350;2023-01-04T00:30:31;10.07;;;1.58;;
41667;SDS011;27356;50.920;5.350;2023-01-04T00:32:57;7.50;;;1.38;;
41667;SDS011;27356;50.920;5.350;2023-01-04T00:35:23;4.05;;;1.38;;
41667;SDS011;27356;50.920;5.350;2023-01-04T00:37:49;6.75;;;1.48;;
41667;SDS011;27356;50.920;5.350;2023-01-04T00:40:15;5.70;;;1.40;;
41667;SDS011;27356;50.920;5.350;2023-01-04T00:42:41;3.85;;;1.20;;
41667;SDS011;27356;50.920;5.350;2023-01-04T00:45:06;7.63;;;1.27;;
41667;SDS011;27356;50.920;5.350;2023-01-04T00:47:32;5.72;;;1.55;;
41667;SDS011;27356;50.920;5.350;2023-01-04T00:49:58;7.50;;;1.50;;
41667;SDS011;27356;50.920;5.350;2023-01-04T00:52:24;5.20;;;1.15;;
41667;SDS011;27356;50.920;5.350;2023-01-04T00:54:50;8.95;;;1.60;;
41667;SDS011;27356;50.920;5.350;2023-01-04T00:57:15;5.07;;;1.20;;
41667;SDS011;27356;50.920;5.350;2023-01-04T00:59:41;6.70;;;1.35;;
41667;SDS011;27356;50.920;5.350;2023-01-04T01:02:07;5.32;;;1.30;;
41667;SDS011;27356;50.920;5.350;2023-01-04T01:04:32;4.97;;;1.33;;
41667;SDS011;27356;50.920;5.350;2023-01-04T01:06:58;3.75;;;1.00;;
41667;SDS011;27356;50.920;5.350;2023-01-04T01:09:24;6.00;;;1.30;;
41667;SDS011;27356;50.920;5.350;2023-01-04T01:11:51;4.10;;;1.33;;
41667;SDS011;27356;50.920;5.350;2023-01-04T01:14:19;3.75;;;1.10;;
41667;SDS011;27356;50.920;5.350;2023-01-04T01:16:46;3.85;;;1.10;;
41667;SDS011;27356;50.920;5.350;2023-01-04T01:19:12;3.92;;;1.05;;
41667;SDS011;27356;50.920;5.350;2023-01-04T01:21:38;4.53;;;1.42;;
41667;SDS011;27356;50.920;5.350;2023-01-04T01:24:04;4.90;;;1.08;;
41667;SDS011;27356;50.920;5.350;2023-01-04T01:26:30;2.95;;;0.90;;
41667;SDS011;27356;50.920;5.350;2023-01-04T01:28:56;5.53;;;1.40;;
41667;SDS011;27356;50.920;5.350;2023-01-04T01:31:23;5.40;;;0.85;;
41667;SDS011;27356;50.920;5.350;2023-01-04T01:33:51;1.27;;;0.68;;
41667;SDS011;27356;50.920;5.350;2023-01-04T01:36:19;4.50;;;1.15;;
41667;SDS011;27356;50.920;5.350;2023-01-04T01:38:47;4.68;;;1.02;;
41667;SDS011;27356;50.920;5.350;2023-01-04T01:41:18;4.28;;;1.00;;
41667;SDS011;27356;50.920;5.350;2023-01-04T01:46:42;3.40;;;1.00;;
41667;SDS011;27356;50.920;5.350;2023-01-04T01:51:57;5.18;;;1.20;;
41667;SDS011;27356;50.920;5.350;2023-01-04T01:54:27;2.58;;;0.82;;
41667;SDS011;27356;50.920;5.350;2023-01-04T01:56:57;3.58;;;0.93;;
41667;SDS011;27356;50.920;5.350;2023-01-04T01:59:25;2.25;;;0.63;;
41667;SDS011;27356;50.920;5.350;2023-01-04T02:01:52;2.35;;;0.90;;
41667;SDS011;27356;50.920;5.350;2023-01-04T02:04:18;1.05;;;0.45;;
41667;SDS011;27356;50.920;5.350;2023-01-04T02:06:47;3.40;;;0.80;;
41667;SDS011;27356;50.920;5.350;2023-01-04T02:09:16;2.80;;;0.60;;
41667;SDS011;27356;50.920;5.350;2023-01-04T02:11:43;1.55;;;0.55;;
41667;SDS011;27356;50.920;5.350;2023-01-04T02:14:09;2.58;;;0.70;;
41667;SDS011;27356;50.920;5.350;2023-01-04T02:16:59;1.27;;;0.50;;
41667;SDS011;27356;50.920;5.350;2023-01-04T02:25:37;1.88;;;0.50;;
41667;SDS011;27356;50.920;5.350;2023-01-04T02:31:21;1.02;;;0.40;;
41667;SDS011;27356;50.920;5.350;2023-01-04T02:37:17;2.20;;;0.40;;
41667;SDS011;27356;50.920;5.350;2023-01-04T02:40:22;0.80;;;0.25;;
41667;SDS011;27356;50.920;5.350;2023-01-04T02:43:08;0.90;;;0.20;;
41667;SDS011;27356;50.920;5.350;2023-01-04T02:46:13;0.30;;;0.30;;
41667;SDS011;27356;50.920;5.350;2023-01-04T02:48:45;0.50;;;0.22;;
41667;SDS011;27356;50.920;5.350;2023-01-04T02:51:31;2.10;;;0.35;;
41667;SDS011;27356;50.920;5.350;2023-01-04T02:54:03;0.47;;;0.30;;
41667;SDS011;27356;50.920;5.350;2023-01-04T02:56:50;0.20;;;0.17;;
41667;SDS011;27356;50.920;5.350;2023-01-04T03:05:48;1.10;;;0.52;;
41667;SDS011;27356;50.920;5.350;2023-01-04T03:11:10;0.30;;;0.20;;
41667;SDS011;27356;50.920;5.350;2023-01-04T03:14:10;1.38;;;0.20;;
41667;SDS011;27356;50.920;5.350;2023-01-04T03:16:44;2.53;;;0.38;;
41667;SDS011;27356;50.920;5.350;2023-01-04T03:19:13;0.17;;;0.10;;
41667;SDS011;27356;50.920;5.350;2023-01-04T03:22:02;2.65;;;0.20;;
41667;SDS011;27356;50.920;5.350;2023-01-04T03:24:30;0.20;;;0.20;;
41667;SDS011;27356;50.920;5.350;2023-01-04T03:27:16;1.25;;;0.25;;
41667;SDS011;27356;50.920;5.350;2023-01-04T03:30:03;1.38;;;0.30;;
41667;SDS011;27356;50.920;5.350;2023-01-04T03:33:02;2.42;;;0.70;;
41667;SDS011;27356;50.920;5.350;2023-01-04T03:36:16;0.55;;;0.28;;
41667;SDS011;27356;50.920;5.350;2023-01-04T03:38:42;0.50;;;0.30;;
41667;SDS011;27356;50.920;5.350;2023-01-04T03:41:31;0.30;;;0.30;;
41667;SDS011;27356;50.920;5.350;2023-01-04T03:47:18;0.40;;;0.30;;
41667;SDS011;27356;50.920;5.350;2023-01-04T03:50:56;4.03;;;0.32;;
41667;SDS011;27356;50.920;5.350;2023-01-04T03:53:22;1.70;;;0.52;;
41667;SDS011;27356;50.920;5.350;2023-01-04T03:55:49;2.05;;;0.70;;
41667;SDS011;27356;50.920;5.350;2023-01-04T03:58:18;0.65;;;0.55;;
41667;SDS011;27356;50.920;5.350;2023-01-04T04:00:45;3.15;;;0.73;;
41667;SDS011;27356;50.920;5.350;2023-01-04T04:03:11;1.50;;;0.40;;
41667;SDS011;27356;50.920;5.350;2023-01-04T04:05:38;2.13;;;0.50;;
41667;SDS011;27356;50.920;5.350;2023-01-04T04:08:24;0.55;;;0.40;;
41667;SDS011;27356;50.920;5.350;2023-01-04T04:10:54;0.50;;;0.40;;
41667;SDS011;27356;50.920;5.350;2023-01-04T04:13:47;1.38;;;0.30;;
41667;SDS011;27356;50.920;5.350;2023-01-04T04:16:14;2.35;;;0.60;;
41667;SDS011;27356;50.920;5.350;2023-01-04T04:18:40;1.02;;;0.40;;
41667;SDS011;27356;50.920;5.350;2023-01-04T04:21:05;0.98;;;0.68;;
41667;SDS011;27356;50.920;5.350;2023-01-04T04:23:31;0.82;;;0.60;;
41667;SDS011;27356;50.920;5.350;2023-01-04T04:25:57;1.17;;;0.60;;
41667;SDS011;27356;50.920;5.350;2023-01-04T04:28:22;5.80;;;0.60;;
41667;SDS011;27356;50.920;5.350;2023-01-04T04:30:48;1.63;;;0.68;;
41667;SDS011;27356;50.920;5.350;2023-01-04T04:33:15;3.88;;;0.80;;
41667;SDS011;27356;50.920;5.350;2023-01-04T04:35:40;0.65;;;0.55;;
41667;SDS011;27356;50.920;5.350;2023-01-04T04:38:06;1.85;;;0.75;;
41667;SDS011;27356;50.920;5.350;2023-01-04T04:40:32;1.55;;;0.70;;
41667;SDS011;27356;50.920;5.350;2023-01-04T04:43:16;1.52;;;0.60;;
41667;SDS011;27356;50.920;5.350;2023-01-04T04:45:41;2.35;;;0.60;;
41667;SDS011;27356;50.920;5.350;2023-01-04T04:48:07;0.57;;;0.57;;
41667;SDS011;27356;50.920;5.350;2023-01-04T04:50:33;3.17;;;0.60;;
41667;SDS011;27356;50.920;5.350;2023-01-04T04:52:58;3.60;;;0.80;;
41667;SDS011;27356;50.920;5.350;2023-01-04T04:55:24;0.45;;;0.40;;
41667;SDS011;27356;50.920;5.350;2023-01-04T04:57:50;3.65;;;0.50;;
41667;SDS011;27356;50.920;5.350;2023-01-04T05:00:15;2.95;;;0.50;;
41667;SDS011;27356;50.920;5.350;2023-01-04T05:02:41;1.67;;;0.50;;
41667;SDS011;27356;50.920;5.350;2023-01-04T05:05:07;1.83;;;0.50;;
41667;SDS011;27356;50.920;5.350;2023-01-04T05:07:33;1.30;;;0.50;;
41667;SDS011;27356;50.920;5.350;2023-01-04T05:09:59;1.13;;;0.60;;
41667;SDS011;27356;50.920;5.350;2023-01-04T05:12:24;1.40;;;0.60;;
41667;SDS011;27356;50.920;5.350;2023-01-04T05:15:09;1.83;;;0.70;;
41667;SDS011;27356;50.920;5.350;2023-01-04T05:17:35;2.47;;;0.52;;
41667;SDS011;27356;50.920;5.350;2023-01-04T05:20:01;0.95;;;0.50;;
41667;SDS011;27356;50.920;5.350;2023-01-04T05:22:27;1.58;;;0.85;;
41667;SDS011;27356;50.920;5.350;2023-01-04T05:24:53;1.65;;;0.68;;
41667;SDS011;27356;50.920;5.350;2023-01-04T05:27:18;0.80;;;0.70;;
41667;SDS011;27356;50.920;5.350;2023-01-04T05:29:44;2.65;;;0.70;;
41667;SDS011;27356;50.920;5.350;2023-01-04T05:32:28;0.77;;;0.63;;
41667;SDS011;27356;50.920;5.350;2023-01-04T05:34:54;2.10;;;0.60;;
41667;SDS011;27356;50.920;5.350;2023-01-04T05:37:19;3.10;;;0.40;;
41667;SDS011;27356;50.920;5.350;2023-01-04T05:39:45;1.13;;;0.88;;
41667;SDS011;27356;50.920;5.350;2023-01-04T05:42:11;1.48;;;0.60;;
41667;SDS011;27356;50.920;5.350;2023-01-04T05:44:52;0.35;;;0.35;;
41667;SDS011;27356;50.920;5.350;2023-01-04T05:47:19;1.88;;;0.43;;
41667;SDS011;27356;50.920;5.350;2023-01-04T05:49:45;1.30;;;0.50;;
41667;SDS011;27356;50.920;5.350;2023-01-04T05:52:11;0.70;;;0.43;;
41667;SDS011;27356;50.920;5.350;2023-01-04T05:54:37;0.55;;;0.40;;
41667;SDS011;27356;50.920;5.350;2023-01-04T05:57:02;1.73;;;0.32;;
41667;SDS011;27356;50.920;5.350;2023-01-04T05:59:28;2.95;;;0.80;;
41667;SDS011;27356;50.920;5.350;2023-01-04T06:01:54;1.48;;;0.50;;
41667;SDS011;27356;50.920;5.350;2023-01-04T06:04:19;2.15;;;0.55;;
41667;SDS011;27356;50.920;5.350;2023-01-04T06:06:45;3.13;;;0.68;;
41667;SDS011;27356;50.920;5.350;2023-01-04T06:09:11;1.20;;;0.50;;
41667;SDS011;27356;50.920;5.350;2023-01-04T06:11:37;3.50;;;0.52;;
41667;SDS011;27356;50.920;5.350;2023-01-04T06:14:02;3.25;;;0.70;;
41667;SDS011;27356;50.920;5.350;2023-01-04T06:16:29;0.73;;;0.68;;
41667;SDS011;27356;50.920;5.350;2023-01-04T06:18:54;1.60;;;0.65;;
41667;SDS011;27356;50.920;5.350;2023-01-04T06:21:20;3.22;;;0.73;;
41667;SDS011;27356;50.920;5.350;2023-01-04T06:23:46;2.78;;;0.70;;
41667;SDS011;27356;50.920;5.350;2023-01-04T06:26:12;1.73;;;0.60;;
41667;SDS011;27356;50.920;5.350;2023-01-04T06:28:37;1.33;;;0.90;;
41667;SDS011;27356;50.920;5.350;2023-01-04T06:31:06;2.65;;;0.80;;
41667;SDS011;27356;50.920;5.350;2023-01-04T06:33:33;2.97;;;0.50;;
41667;SDS011;27356;50.920;5.350;2023-01-04T06:35:59;0.93;;;0.73;;
41667;SDS011;27356;50.920;5.350;2023-01-04T06:38:25;1.35;;;0.75;;
41667;SDS011;27356;50.920;5.350;2023-01-04T06:40:51;1.42;;;0.70;;
41667;SDS011;27356;50.920;5.350;2023-01-04T06:43:17;1.25;;;0.70;;
41667;SDS011;27356;50.920;5.350;2023-01-04T06:45:43;3.60;;;0.80;;
41667;SDS011;27356;50.920;5.350;2023-01-04T06:48:08;3.17;;;1.20;;
41667;SDS011;27356;50.920;5.350;2023-01-04T06:50:34;3.00;;;1.17;;
41667;SDS011;27356;50.920;5.350;2023-01-04T06:53:00;2.88;;;0.77;;
41667;SDS011;27356;50.920;5.350;2023-01-04T06:55:25;2.40;;;0.60;;
41667;SDS011;27356;50.920;5.350;2023-01-04T06:57:53;4.57;;;1.02;;
41667;SDS011;27356;50.920;5.350;2023-01-04T07:00:19;1.08;;;0.70;;
41667;SDS011;27356;50.920;5.350;2023-01-04T07:02:45;1.48;;;0.70;;
41667;SDS011;27356;50.920;5.350;2023-01-04T07:05:11;1.98;;;0.68;;
41667;SDS011;27356;50.920;5.350;2023-01-04T07:07:36;2.40;;;1.05;;
41667;SDS011;27356;50.920;5.350;2023-01-04T07:10:02;3.42;;;0.85;;
41667;SDS011;27356;50.920;5.350;2023-01-04T07:12:28;6.47;;;1.98;;
41667;SDS011;27356;50.920;5.350;2023-01-04T07:14:54;1.33;;;0.98;;
41667;SDS011;27356;50.920;5.350;2023-01-04T07:17:20;2.13;;;0.70;;
41667;SDS011;27356;50.920;5.350;2023-01-04T07:19:45;2.92;;;1.25;;
41667;SDS011;27356;50.920;5.350;2023-01-04T07:22:11;4.18;;;0.90;;
41667;SDS011;27356;50.920;5.350;2023-01-04T07:24:37;1.85;;;0.93;;
41667;SDS011;27356;50.920;5.350;2023-01-04T07:27:02;2.50;;;1.00;;
41667;SDS011;27356;50.920;5.350;2023-01-04T07:29:28;1.90;;;0.70;;
41667;SDS011;27356;50.920;5.350;2023-01-04T07:31:54;2.38;;;0.80;;
41667;SDS011;27356;50.920;5.350;2023-01-04T07:34:21;1.23;;;0.68;;
41667;SDS011;27356;50.920;5.350;2023-01-04T07:36:48;7.20;;;1.48;;
41667;SDS011;27356;50.920;5.350;2023-01-04T07:39:17;4.10;;;0.65;;
41667;SDS011;27356;50.920;5.350;2023-01-04T07:41:44;4.10;;;0.95;;
41667;SDS011;27356;50.920;5.350;2023-01-04T07:44:10;2.65;;;1.23;;
41667;SDS011;27356;50.920;5.350;2023-01-04T07:46:37;1.52;;;0.55;;
41667;SDS011;27356;50.920;5.350;2023-01-04T07:49:03;0.88;;;0.65;;
41667;SDS011;27356;50.920;5.350;2023-01-04T07:51:30;1.67;;;0.70;;
41667;SDS011;27356;50.920;5.350;2023-01-04T07:53:57;3.45;;;0.82;;
41667;SDS011;27356;50.920;5.350;2023-01-04T07:56:23;0.68;;;0.60;;
41667;SDS011;27356;50.920;5.350;2023-01-04T07:58:49;3.03;;;0.85;;
41667;SDS011;27356;50.920;5.350;2023-01-04T08:01:15;0.88;;;0.50;;
41667;SDS011;27356;50.920;5.350;2023-01-04T08:03:45;2.65;;;0.68;;
41667;SDS011;27356;50.920;5.350;2023-01-04T08:06:11;2.30;;;0.70;;
41667;SDS011;27356;50.920;5.350;2023-01-04T08:08:38;5.20;;;0.90;;
41667;SDS011;27356;50.920;5.350;2023-01-04T08:11:05;2.00;;;0.90;;
41667;SDS011;27356;50.920;5.350;2023-01-04T08:13:33;4.53;;;0.80;;
41667;SDS011;27356;50.920;5.350;2023-01-04T08:15:58;1.50;;;0.43;;
41667;SDS011;27356;50.920;5.350;2023-01-04T08:18:24;4.20;;;0.80;;
41667;SDS011;27356;50.920;5.350;2023-01-04T08:20:50;0.93;;;0.35;;
41667;SDS011;27356;50.920;5.350;2023-01-04T08:23:29;2.55;;;0.55;;
41667;SDS011;27356;50.920;5.350;2023-01-04T08:25:55;1.67;;;0.60;;
41667;SDS011;27356;50.920;5.350;2023-01-04T08:28:25;1.75;;;0.60;;
41667;SDS011;27356;50.920;5.350;2023-01-04T08:30:50;3.40;;;0.50;;
41667;SDS011;27356;50.920;5.350;2023-01-04T08:33:16;2.15;;;0.68;;
41667;SDS011;27356;50.920;5.350;2023-01-04T08:35:42;2.95;;;0.60;;
41667;SDS011;27356;50.920;5.350;2023-01-04T08:38:07;4.53;;;0.80;;
41667;SDS011;27356;50.920;5.350;2023-01-04T08:40:33;1.85;;;0.50;;
41667;SDS011;27356;50.920;5.350;2023-01-04T08:42:59;0.73;;;0.28;;
41667;SDS011;27356;50.920;5.350;2023-01-04T08:45:24;2.80;;;0.70;;
41667;SDS011;27356;50.920;5.350;2023-01-04T08:47:50;8.35;;;0.75;;
41667;SDS011;27356;50.920;5.350;2023-01-04T08:50:16;0.70;;;0.50;;
41667;SDS011;27356;50.920;5.350;2023-01-04T08:52:44;0.45;;;0.40;;
41667;SDS011;27356;50.920;5.350;2023-01-04T08:55:10;1.73;;;0.50;;
41667;SDS011;27356;50.920;5.350;2023-01-04T08:57:35;1.58;;;0.60;;
41667;SDS011;27356;50.920;5.350;2023-01-04T09:00:02;1.63;;;0.80;;
41667;SDS011;27356;50.920;5.350;2023-01-04T09:02:28;2.40;;;0.60;;
41667;SDS011;27356;50.920;5.350;2023-01-04T09:04:54;3.78;;;0.47;;
41667;SDS011;27356;50.920;5.350;2023-01-04T09:07:24;1.63;;;0.60;;
41667;SDS011;27356;50.920;5.350;2023-01-04T09:09:52;2.63;;;1.05;;
41667;SDS011;27356;50.920;5.350;2023-01-04T09:12:18;0.93;;;0.70;;
41667;SDS011;27356;50.920;5.350;2023-01-04T09:14:43;3.15;;;0.63;;
41667;SDS011;27356;50.920;5.350;2023-01-04T09:17:09;7.13;;;0.68;;
41667;SDS011;27356;50.920;5.350;2023-01-04T09:19:38;0.68;;;0.50;;
41667;SDS011;27356;50.920;5.350;2023-01-04T09:22:04;1.95;;;0.82;;
41667;SDS011;27356;50.920;5.350;2023-01-04T09:24:31;2.25;;;0.77;;
41667;SDS011;27356;50.920;5.350;2023-01-04T09:26:57;4.07;;;0.73;;
41667;SDS011;27356;50.920;5.350;2023-01-04T09:29:23;3.15;;;0.95;;
41667;SDS011;27356;50.920;5.350;2023-01-04T09:31:51;4.13;;;0.75;;
41667;SDS011;27356;50.920;5.350;2023-01-04T09:34:18;2.45;;;0.70;;
41667;SDS011;27356;50.920;5.350;2023-01-04T09:36:46;5.75;;;0.70;;
41667;SDS011;27356;50.920;5.350;2023-01-04T09:39:15;2.95;;;0.60;;
41667;SDS011;27356;50.920;5.350;2023-01-04T09:41:46;3.97;;;0.80;;
41667;SDS011;27356;50.920;5.350;2023-01-04T09:47:07;0.70;;;0.52;;
41667;SDS011;27356;50.920;5.350;2023-01-04T09:49:42;1.67;;;1.35;;
41667;SDS011;27356;50.920;5.350;2023-01-04T09:52:37;3.45;;;0.90;;
41667;SDS011;27356;50.920;5.350;2023-01-04T09:55:08;5.65;;;0.85;;
41667;SDS011;27356;50.920;5.350;2023-01-04T09:57:44;4.28;;;0.90;;
41667;SDS011;27356;50.920;5.350;2023-01-04T10:00:36;3.55;;;1.40;;
41667;SDS011;27356;50.920;5.350;2023-01-04T10:03:24;4.93;;;0.98;;
41667;SDS011;27356;50.920;5.350;2023-01-04T10:05:54;3.75;;;0.90;;
41667;SDS011;27356;50.920;5.350;2023-01-04T10:08:20;7.13;;;0.98;;
41667;SDS011;27356;50.920;5.350;2023-01-04T10:13:47;4.20;;;0.90;;
41667;SDS011;27356;50.920;5.350;2023-01-04T10:16:27;6.15;;;0.85;;
41667;SDS011;27356;50.920;5.350;2023-01-04T10:19:30;2.88;;;1.00;;
41667;SDS011;27356;50.920;5.350;2023-01-04T10:22:13;8.85;;;0.95;;
41667;SDS011;27356;50.920;5.350;2023-01-04T10:24:46;2.72;;;0.85;;
41667;SDS011;27356;50.920;5.350;2023-01-04T10:27:20;2.03;;;0.90;;
41667;SDS011;27356;50.920;5.350;2023-01-04T10:30:07;6.28;;;0.77;;
41667;SDS011;27356;50.920;5.350;2023-01-04T10:32:43;2.28;;;0.60;;
41667;SDS011;27356;50.920;5.350;2023-01-04T10:35:15;5.55;;;0.90;;
41667;SDS011;27356;50.920;5.350;2023-01-04T10:38:32;4.88;;;0.88;;
41667;SDS011;27356;50.920;5.350;2023-01-04T10:46:39;3.88;;;1.00;;
41667;SDS011;27356;50.920;5.350;2023-01-04T10:49:16;3.22;;;0.93;;
41667;SDS011;27356;50.920;5.350;2023-01-04T10:52:11;4.95;;;1.10;;
41667;SDS011;27356;50.920;5.350;2023-01-04T10:54:50;3.63;;;1.30;;
41667;SDS011;27356;50.920;5.350;2023-01-04T10:57:52;5.72;;;1.40;;
41667;SDS011;27356;50.920;5.350;2023-01-04T11:00:22;2.70;;;1.17;;
41667;SDS011;27356;50.920;5.350;2023-01-04T11:05:42;4.87;;;0.90;;
41667;SDS011;27356;50.920;5.350;2023-01-04T11:08:22;4.85;;;1.25;;
41667;SDS011;27356;50.920;5.350;2023-01-04T11:10:56;4.85;;;1.20;;
41667;SDS011;27356;50.920;5.350;2023-01-04T11:13:28;2.15;;;1.10;;
41667;SDS011;27356;50.920;5.350;2023-01-04T11:15:55;2.65;;;1.00;;
41667;SDS011;27356;50.920;5.350;2023-01-04T11:18:21;2.15;;;1.10;;
41667;SDS011;27356;50.920;5.350;2023-01-04T11:20:47;2.25;;;0.85;;
41667;SDS011;27356;50.920;5.350;2023-01-04T11:23:14;3.00;;;0.90;;
41667;SDS011;27356;50.920;5.350;2023-01-04T11:25:46;2.67;;;0.80;;
41667;SDS011;27356;50.920;5.350;2023-01-04T11:28:28;3.38;;;0.70;;
41667;SDS011;27356;50.920;5.350;2023-01-04T11:31:23;3.13;;;0.73;;
41667;SDS011;27356;50.920;5.350;2023-01-04T11:34:00;3.80;;;1.65;;
41667;SDS011;27356;50.920;5.350;2023-01-04T11:38:55;1.50;;;0.60;;
41667;SDS011;27356;50.920;5.350;2023-01-04T11:41:22;4.15;;;0.77;;
41667;SDS011;27356;50.920;5.350;2023-01-04T11:44:01;1.05;;;0.60;;
41667;SDS011;27356;50.920;5.350;2023-01-04T11:46:29;3.90;;;0.60;;
41667;SDS011;27356;50.920;5.350;2023-01-04T11:48:56;1.13;;;0.60;;
41667;SDS011;27356;50.920;5.350;2023-01-04T11:53:58;1.08;;;0.50;;
41667;SDS011;27356;50.920;5.350;2023-01-04T11:57:00;1.65;;;0.80;;
41667;SDS011;27356;50.920;5.350;2023-01-04T11:59:28;3.90;;;0.77;;
41667;SDS011;27356;50.920;5.350;2023-01-04T12:04:58;4.43;;;0.90;;
41667;SDS011;27356;50.920;5.350;2023-01-04T12:07:31;2.85;;;0.60;;
41667;SDS011;27356;50.920;5.350;2023-01-04T12:12:56;1.45;;;0.98;;
41667;SDS011;27356;50.920;5.350;2023-01-04T12:15:33;1.02;;;0.77;;
41667;SDS011;27356;50.920;5.350;2023-01-04T12:18:25;3.63;;;1.13;;
41667;SDS011;27356;50.920;5.350;2023-01-04T12:20:55;1.17;;;0.80;;
41667;SDS011;27356;50.920;5.350;2023-01-04T12:23:25;4.45;;;0.80;;
41667;SDS011;27356;50.920;5.350;2023-01-04T12:25:51;2.53;;;0.95;;
41667;SDS011;27356;50.920;5.350;2023-01-04T12:28:31;8.00;;;1.67;;
41667;SDS011;27356;50.920;5.350;2023-01-04T12:36:12;2.97;;;0.90;;
41667;SDS011;27356;50.920;5.350;2023-01-04T12:38:59;2.50;;;1.05;;
41667;SDS011;27356;50.920;5.350;2023-01-04T12:44:00;4.35;;;1.10;;
41667;SDS011;27356;50.920;5.350;2023-01-04T13:02:26;2.15;;;0.73;;
41667;SDS011;27356;50.920;5.350;2023-01-04T13:05:00;0.52;;;0.52;;
41667;SDS011;27356;50.920;5.350;2023-01-04T13:07:36;1.75;;;0.90;;
41667;SDS011;27356;50.920;5.350;2023-01-04T13:10:20;1.63;;;0.50;;
41667;SDS011;27356;50.920;5.350;2023-01-04T13:18:47;0.73;;;0.52;;
41667;SDS011;27356;50.920;5.350;2023-01-04T13:23:56;2.60;;;0.57;;
41667;SDS011;27356;50.920;5.350;2023-01-04T13:26:31;1.33;;;0.60;;
41667;SDS011;27356;50.920;5.350;2023-01-04T13:29:09;2.88;;;0.73;;
41667;SDS011;27356;50.920;5.350;2023-01-04T13:39:44;2.30;;;0.70;;
41667;SDS011;27356;50.920;5.350;2023-01-04T13:42:15;1.95;;;1.15;;
41667;SDS011;27356;50.920;5.350;2023-01-04T13:47:23;1.13;;;0.65;;
41667;SDS011;27356;50.920;5.350;2023-01-04T13:49:49;1.45;;;0.60;;
41667;SDS011;27356;50.920;5.350;2023-01-04T13:52:22;2.83;;;0.75;;
41667;SDS011;27356;50.920;5.350;2023-01-04T13:54:48;9.38;;;1.08;;
41667;SDS011;27356;50.920;5.350;2023-01-04T13:57:17;1.13;;;0.47;;
41667;SDS011;27356;50.920;5.350;2023-01-04T13:59:48;2.08;;;0.70;;
41667;SDS011;27356;50.920;5.350;2023-01-04T14:02:18;1.42;;;0.55;;
41667;SDS011;27356;50.920;5.350;2023-01-04T14:04:46;0.52;;;0.30;;
41667;SDS011;27356;50.920;5.350;2023-01-04T14:07:18;1.15;;;0.73;;
41667;SDS011;27356;50.920;5.350;2023-01-04T14:09:49;2.25;;;0.57;;
41667;SDS011;27356;50.920;5.350;2023-01-04T14:12:22;1.80;;;0.60;;
41667;SDS011;27356;50.920;5.350;2023-01-04T14:17:53;3.92;;;0.80;;
41667;SDS011;27356;50.920;5.350;2023-01-04T14:30:53;2.55;;;0.47;;
41667;SDS011;27356;50.920;5.350;2023-01-04T14:38:42;3.45;;;0.77;;
41667;SDS011;27356;50.920;5.350;2023-01-04T14:41:17;1.17;;;0.57;;
41667;SDS011;27356;50.920;5.350;2023-01-04T14:43:47;4.97;;;0.70;;
41667;SDS011;27356;50.920;5.350;2023-01-04T14:46:18;3.20;;;0.70;;
41667;SDS011;27356;50.920;5.350;2023-01-04T14:48:44;0.70;;;0.40;;
41667;SDS011;27356;50.920;5.350;2023-01-04T14:51:11;0.70;;;0.30;;
41667;SDS011;27356;50.920;5.350;2023-01-04T14:53:40;0.82;;;0.32;;
41667;SDS011;27356;50.920;5.350;2023-01-04T14:56:07;0.43;;;0.30;;
41667;SDS011;27356;50.920;5.350;2023-01-04T14:58:36;3.25;;;0.30;;
41667;SDS011;27356;50.920;5.350;2023-01-04T15:01:02;2.88;;;0.70;;
41667;SDS011;27356;50.920;5.350;2023-01-04T15:03:28;1.00;;;0.30;;
41667;SDS011;27356;50.920;5.350;2023-01-04T15:05:53;1.83;;;0.50;;
41667;SDS011;27356;50.920;5.350;2023-01-04T15:08:19;2.78;;;0.80;;
41667;SDS011;27356;50.920;5.350;2023-01-04T15:10:45;1.85;;;0.50;;
41667;SDS011;27356;50.920;5.350;2023-01-04T15:13:10;1.27;;;0.60;;
41667;SDS011;27356;50.920;5.350;2023-01-04T15:15:36;3.70;;;1.08;;
41667;SDS011;27356;50.920;5.350;2023-01-04T15:18:03;4.60;;;1.00;;
41667;SDS011;27356;50.920;5.350;2023-01-04T15:20:29;1.83;;;0.68;;
41667;SDS011;27356;50.920;5.350;2023-01-04T15:22:54;2.35;;;0.70;;
41667;SDS011;27356;50.920;5.350;2023-01-04T15:25:20;2.47;;;0.80;;
41667;SDS011;27356;50.920;5.350;2023-01-04T15:27:46;1.08;;;0.80;;
41667;SDS011;27356;50.920;5.350;2023-01-04T15:30:12;5.18;;;0.77;;
41667;SDS011;27356;50.920;5.350;2023-01-04T15:32:38;2.35;;;1.00;;
41667;SDS011;27356;50.920;5.350;2023-01-04T15:35:04;3.00;;;0.70;;
41667;SDS011;27356;50.920;5.350;2023-01-04T15:37:30;2.10;;;0.60;;
41667;SDS011;27356;50.920;5.350;2023-01-04T15:39:56;3.30;;;0.82;;
41667;SDS011;27356;50.920;5.350;2023-01-04T15:42:22;1.02;;;0.60;;
41667;SDS011;27356;50.920;5.350;2023-01-04T15:45:06;1.42;;;0.82;;
41667;SDS011;27356;50.920;5.350;2023-01-04T15:47:32;4.55;;;0.60;;
41667;SDS011;27356;50.920;5.350;2023-01-04T15:50:00;1.98;;;0.50;;
41667;SDS011;27356;50.920;5.350;2023-01-04T15:52:26;1.05;;;0.40;;
41667;SDS011;27356;50.920;5.350;2023-01-04T15:54:52;1.70;;;0.88;;
41667;SDS011;27356;50.920;5.350;2023-01-04T15:57:17;1.35;;;0.60;;
41667;SDS011;27356;50.920;5.350;2023-01-04T15:59:45;1.88;;;0.60;;
41667;SDS011;27356;50.920;5.350;2023-01-04T16:02:11;3.22;;;0.57;;
41667;SDS011;27356;50.920;5.350;2023-01-04T16:04:37;1.50;;;0.50;;
41667;SDS011;27356;50.920;5.350;2023-01-04T16:07:03;3.75;;;0.55;;
41667;SDS011;27356;50.920;5.350;2023-01-04T16:09:28;3.92;;;0.93;;
41667;SDS011;27356;50.920;5.350;2023-01-04T16:11:54;13.15;;;1.85;;
41667;SDS011;27356;50.920;5.350;2023-01-04T16:14:38;9.25;;;1.27;;
41667;SDS011;27356;50.920;5.350;2023-01-04T16:17:04;10.27;;;1.55;;
41667;SDS011;27356;50.920;5.350;2023-01-04T16:19:30;8.32;;;1.73;;
41667;SDS011;27356;50.920;5.350;2023-01-04T16:21:58;13.80;;;1.65;;
41667;SDS011;27356;50.920;5.350;2023-01-04T16:24:24;14.18;;;1.95;;
41667;SDS011;27356;50.920;5.350;2023-01-04T16:26:50;16.60;;;2.67;;
41667;SDS011;27356;50.920;5.350;2023-01-04T16:29:16;12.73;;;2.13;;
41667;SDS011;27356;50.920;5.350;2023-01-04T16:31:43;17.15;;;3.10;;
41667;SDS011;27356;50.920;5.350;2023-01-04T16:34:10;17.90;;;3.20;;
41667;SDS011;27356;50.920;5.350;2023-01-04T16:36:37;13.93;;;2.20;;
41667;SDS011;27356;50.920;5.350;2023-01-04T16:39:03;11.25;;;2.45;;
41667;SDS011;27356;50.920;5.350;2023-01-04T16:41:29;13.45;;;2.72;;
41667;SDS011;27356;50.920;5.350;2023-01-04T16:43:55;16.27;;;2.55;;
41667;SDS011;27356;50.920;5.350;2023-01-04T16:46:24;16.85;;;2.78;;
41667;SDS011;27356;50.920;5.350;2023-01-04T16:49:02;18.40;;;2.97;;
41667;SDS011;27356;50.920;5.350;2023-01-04T16:51:34;17.27;;;2.50;;
41667;SDS011;27356;50.920;5.350;2023-01-04T16:54:01;20.42;;;3.45;;
41667;SDS011;27356;50.920;5.350;2023-01-04T16:56:28;18.42;;;3.40;;
41667;SDS011;27356;50.920;5.350;2023-01-04T16:58:53;23.70;;;3.75;;
41667;SDS011;27356;50.920;5.350;2023-01-04T17:01:21;18.50;;;3.33;;
41667;SDS011;27356;50.920;5.350;2023-01-04T17:03:48;17.13;;;2.55;;